sensor_id;sensor_type;location;lat;lon;timestamp;P1;durP1;ratioP1;P2;durP2;ratioP2
59649;SDS011;46162;57.568;25.814;2023-02-17T00:01:18;12.75;;;6.25;;
59649;SDS011;46162;57.568;25.814;2023-02-17T00:03:48;12.27;;;6.57;;
59649;SDS011;46162;57.568;25.814;2023-02-17T00:06:18;12.63;;;5.80;;
59649;SDS011;46162;57.568;25.814;2023-02-17T00:08:48;14.45;;;6.63;;
59649;SDS011;46162;57.568;25.814;2023-02-17T00:11:17;13.23;;;6.15;;
59649;SDS011;46162;57.568;25.814;2023-02-17T00:13:47;13.45;;;6.78;;
59649;SDS011;46162;57.568;25.814;2023-02-17T00:16:16;14.68;;;6.18;;
59649;SDS011;46162;57.568;25.814;2023-02-17T00:18:46;13.02;;;6.40;;
59649;SDS011;46162;57.568;25.814;2023-02-17T00:21:20;13.88;;;6.38;;
59649;SDS011;46162;57.568;25.814;2023-02-17T00:23:50;15.93;;;6.40;;
59649;SDS011;46162;57.568;25.814;2023-02-17T00:26:20;11.95;;;5.38;;
59649;SDS011;46162;57.568;25.814;2023-02-17T00:28:50;13.60;;;5.90;;
59649;SDS011;46162;57.568;25.814;2023-02-17T00:31:20;12.02;;;5.50;;
59649;SDS011;46162;57.568;25.814;2023-02-17T00:36:21;15.52;;;6.05;;
59649;SDS011;46162;57.568;25.814;2023-02-17T00:38:50;14.25;;;5.95;;
59649;SDS011;46162;57.568;25.814;2023-02-17T00:41:20;11.63;;;5.83;;
59649;SDS011;46162;57.568;25.814;2023-02-17T00:43:51;12.18;;;5.45;;
59649;SDS011;46162;57.568;25.814;2023-02-17T00:48:51;12.93;;;5.70;;
59649;SDS011;46162;57.568;25.814;2023-02-17T00:51:20;13.98;;;5.85;;
59649;SDS011;46162;57.568;25.814;2023-02-17T00:53:49;13.23;;;5.88;;
59649;SDS011;46162;57.568;25.814;2023-02-17T00:56:17;15.65;;;6.72;;
59649;SDS011;46162;57.568;25.814;2023-02-17T00:58:46;12.73;;;5.70;;
59649;SDS011;46162;57.568;25.814;2023-02-17T01:01:16;13.50;;;6.80;;
59649;SDS011;46162;57.568;25.814;2023-02-17T01:03:45;12.43;;;5.90;;
59649;SDS011;46162;57.568;25.814;2023-02-17T01:06:16;13.45;;;7.10;;
59649;SDS011;46162;57.568;25.814;2023-02-17T01:08:49;12.38;;;6.65;;
59649;SDS011;46162;57.568;25.814;2023-02-17T01:11:19;12.52;;;7.10;;
59649;SDS011;46162;57.568;25.814;2023-02-17T01:13:49;12.15;;;6.20;;
59649;SDS011;46162;57.568;25.814;2023-02-17T01:16:21;11.32;;;5.60;;
59649;SDS011;46162;57.568;25.814;2023-02-17T01:18:51;16.70;;;6.60;;
59649;SDS011;46162;57.568;25.814;2023-02-17T01:21:21;12.77;;;6.97;;
59649;SDS011;46162;57.568;25.814;2023-02-17T01:26:21;13.48;;;6.38;;
59649;SDS011;46162;57.568;25.814;2023-02-17T01:28:52;13.43;;;6.82;;
59649;SDS011;46162;57.568;25.814;2023-02-17T01:31:23;14.75;;;6.95;;
59649;SDS011;46162;57.568;25.814;2023-02-17T01:33:53;15.65;;;7.63;;
59649;SDS011;46162;57.568;25.814;2023-02-17T01:36:23;14.82;;;7.75;;
59649;SDS011;46162;57.568;25.814;2023-02-17T01:38:52;15.65;;;8.07;;
59649;SDS011;46162;57.568;25.814;2023-02-17T01:41:22;15.00;;;7.28;;
59649;SDS011;46162;57.568;25.814;2023-02-17T01:46:40;15.13;;;7.35;;
59649;SDS011;46162;57.568;25.814;2023-02-17T01:49:22;15.45;;;7.07;;
59649;SDS011;46162;57.568;25.814;2023-02-17T01:51:57;15.02;;;6.80;;
59649;SDS011;46162;57.568;25.814;2023-02-17T01:54:33;11.50;;;6.28;;
59649;SDS011;46162;57.568;25.814;2023-02-17T01:57:07;12.63;;;6.43;;
59649;SDS011;46162;57.568;25.814;2023-02-17T01:59:38;14.07;;;6.65;;
59649;SDS011;46162;57.568;25.814;2023-02-17T02:02:09;12.35;;;6.35;;
59649;SDS011;46162;57.568;25.814;2023-02-17T02:04:41;13.15;;;5.78;;
59649;SDS011;46162;57.568;25.814;2023-02-17T02:07:15;12.23;;;5.63;;
59649;SDS011;46162;57.568;25.814;2023-02-17T02:09:48;11.85;;;4.88;;
59649;SDS011;46162;57.568;25.814;2023-02-17T02:12:21;10.05;;;4.53;;
59649;SDS011;46162;57.568;25.814;2023-02-17T02:14:50;10.90;;;5.57;;
59649;SDS011;46162;57.568;25.814;2023-02-17T02:17:25;10.00;;;3.95;;
59649;SDS011;46162;57.568;25.814;2023-02-17T02:20:06;9.85;;;4.32;;
59649;SDS011;46162;57.568;25.814;2023-02-17T02:22:59;8.90;;;4.18;;
59649;SDS011;46162;57.568;25.814;2023-02-17T02:25:53;7.97;;;3.70;;
59649;SDS011;46162;57.568;25.814;2023-02-17T02:28:41;10.73;;;4.20;;
59649;SDS011;46162;57.568;25.814;2023-02-17T02:31:33;8.38;;;3.55;;
59649;SDS011;46162;57.568;25.814;2023-02-17T02:34:13;8.25;;;3.15;;
59649;SDS011;46162;57.568;25.814;2023-02-17T02:36:48;7.78;;;3.30;;
59649;SDS011;46162;57.568;25.814;2023-02-17T02:39:23;9.13;;;2.88;;
59649;SDS011;46162;57.568;25.814;2023-02-17T02:41:57;11.02;;;3.33;;
59649;SDS011;46162;57.568;25.814;2023-02-17T02:44:29;7.43;;;2.80;;
59649;SDS011;46162;57.568;25.814;2023-02-17T02:46:57;7.75;;;2.72;;
59649;SDS011;46162;57.568;25.814;2023-02-17T02:49:29;7.63;;;2.60;;
59649;SDS011;46162;57.568;25.814;2023-02-17T02:52:02;6.32;;;2.47;;
59649;SDS011;46162;57.568;25.814;2023-02-17T02:54:40;5.93;;;2.30;;
59649;SDS011;46162;57.568;25.814;2023-02-17T02:57:21;6.78;;;1.85;;
59649;SDS011;46162;57.568;25.814;2023-02-17T03:00:08;10.38;;;2.10;;
59649;SDS011;46162;57.568;25.814;2023-02-17T03:02:44;7.85;;;2.53;;
59649;SDS011;46162;57.568;25.814;2023-02-17T03:05:23;6.40;;;2.58;;
59649;SDS011;46162;57.568;25.814;2023-02-17T03:07:58;6.40;;;2.20;;
59649;SDS011;46162;57.568;25.814;2023-02-17T03:10:30;5.95;;;2.20;;
59649;SDS011;46162;57.568;25.814;2023-02-17T03:13:00;6.03;;;2.00;;
59649;SDS011;46162;57.568;25.814;2023-02-17T03:15:30;6.40;;;2.10;;
59649;SDS011;46162;57.568;25.814;2023-02-17T03:18:01;7.20;;;2.20;;
59649;SDS011;46162;57.568;25.814;2023-02-17T03:20:33;4.90;;;1.75;;
59649;SDS011;46162;57.568;25.814;2023-02-17T03:23:05;6.25;;;1.70;;
59649;SDS011;46162;57.568;25.814;2023-02-17T03:25:34;5.90;;;1.67;;
59649;SDS011;46162;57.568;25.814;2023-02-17T03:28:03;5.15;;;2.05;;
59649;SDS011;46162;57.568;25.814;2023-02-17T03:30:32;6.65;;;2.65;;
59649;SDS011;46162;57.568;25.814;2023-02-17T03:33:00;7.03;;;2.17;;
59649;SDS011;46162;57.568;25.814;2023-02-17T03:35:29;6.00;;;1.85;;
59649;SDS011;46162;57.568;25.814;2023-02-17T03:37:59;7.60;;;2.10;;
59649;SDS011;46162;57.568;25.814;2023-02-17T03:40:28;6.10;;;2.00;;
59649;SDS011;46162;57.568;25.814;2023-02-17T03:42:57;5.03;;;1.67;;
59649;SDS011;46162;57.568;25.814;2023-02-17T03:45:25;5.22;;;1.70;;
59649;SDS011;46162;57.568;25.814;2023-02-17T03:47:54;5.80;;;1.85;;
59649;SDS011;46162;57.568;25.814;2023-02-17T03:50:22;5.22;;;1.60;;
59649;SDS011;46162;57.568;25.814;2023-02-17T03:52:51;5.75;;;1.83;;
59649;SDS011;46162;57.568;25.814;2023-02-17T03:55:21;5.70;;;2.08;;
59649;SDS011;46162;57.568;25.814;2023-02-17T03:57:49;5.00;;;1.48;;
59649;SDS011;46162;57.568;25.814;2023-02-17T04:00:18;6.03;;;1.65;;
59649;SDS011;46162;57.568;25.814;2023-02-17T04:02:49;6.03;;;2.15;;
59649;SDS011;46162;57.568;25.814;2023-02-17T04:05:18;4.80;;;1.88;;
59649;SDS011;46162;57.568;25.814;2023-02-17T04:07:49;5.70;;;1.73;;
59649;SDS011;46162;57.568;25.814;2023-02-17T04:10:17;4.95;;;1.52;;
59649;SDS011;46162;57.568;25.814;2023-02-17T04:12:48;7.40;;;2.28;;
59649;SDS011;46162;57.568;25.814;2023-02-17T04:15:17;5.97;;;1.80;;
59649;SDS011;46162;57.568;25.814;2023-02-17T04:17:46;4.90;;;1.40;;
59649;SDS011;46162;57.568;25.814;2023-02-17T04:20:14;5.03;;;1.30;;
59649;SDS011;46162;57.568;25.814;2023-02-17T04:22:43;4.28;;;1.35;;
59649;SDS011;46162;57.568;25.814;2023-02-17T04:25:12;5.40;;;1.55;;
59649;SDS011;46162;57.568;25.814;2023-02-17T04:27:41;4.80;;;1.33;;
59649;SDS011;46162;57.568;25.814;2023-02-17T04:30:12;5.57;;;1.63;;
59649;SDS011;46162;57.568;25.814;2023-02-17T04:32:42;5.15;;;1.02;;
59649;SDS011;46162;57.568;25.814;2023-02-17T04:35:11;4.55;;;0.95;;
59649;SDS011;46162;57.568;25.814;2023-02-17T04:37:39;5.30;;;1.08;;
59649;SDS011;46162;57.568;25.814;2023-02-17T04:40:08;4.63;;;1.30;;
59649;SDS011;46162;57.568;25.814;2023-02-17T04:42:38;5.22;;;1.30;;
59649;SDS011;46162;57.568;25.814;2023-02-17T04:45:07;4.38;;;1.48;;
59649;SDS011;46162;57.568;25.814;2023-02-17T04:47:38;3.97;;;1.08;;
59649;SDS011;46162;57.568;25.814;2023-02-17T04:50:07;4.63;;;1.38;;
59649;SDS011;46162;57.568;25.814;2023-02-17T04:52:37;4.77;;;1.53;;
59649;SDS011;46162;57.568;25.814;2023-02-17T04:55:06;5.72;;;1.27;;
59649;SDS011;46162;57.568;25.814;2023-02-17T04:57:35;3.83;;;1.15;;
59649;SDS011;46162;57.568;25.814;2023-02-17T05:00:04;6.00;;;1.20;;
59649;SDS011;46162;57.568;25.814;2023-02-17T05:02:34;5.10;;;1.30;;
59649;SDS011;46162;57.568;25.814;2023-02-17T05:05:04;3.47;;;0.80;;
59649;SDS011;46162;57.568;25.814;2023-02-17T05:07:34;5.25;;;1.25;;
59649;SDS011;46162;57.568;25.814;2023-02-17T05:10:02;6.15;;;1.48;;
59649;SDS011;46162;57.568;25.814;2023-02-17T05:12:31;3.40;;;0.85;;
59649;SDS011;46162;57.568;25.814;2023-02-17T05:15:01;5.00;;;0.85;;
59649;SDS011;46162;57.568;25.814;2023-02-17T05:17:30;4.72;;;1.10;;
59649;SDS011;46162;57.568;25.814;2023-02-17T05:19:59;3.92;;;0.70;;
59649;SDS011;46162;57.568;25.814;2023-02-17T05:22:29;4.28;;;0.80;;
59649;SDS011;46162;57.568;25.814;2023-02-17T05:24:57;3.95;;;1.10;;
59649;SDS011;46162;57.568;25.814;2023-02-17T05:27:26;3.65;;;0.65;;
59649;SDS011;46162;57.568;25.814;2023-02-17T05:29:55;4.90;;;1.48;;
59649;SDS011;46162;57.568;25.814;2023-02-17T05:32:24;5.18;;;1.20;;
59649;SDS011;46162;57.568;25.814;2023-02-17T05:34:53;3.28;;;1.00;;
59649;SDS011;46162;57.568;25.814;2023-02-17T05:37:22;4.13;;;1.10;;
59649;SDS011;46162;57.568;25.814;2023-02-17T05:39:52;3.95;;;1.27;;
59649;SDS011;46162;57.568;25.814;2023-02-17T05:42:21;4.30;;;1.40;;
59649;SDS011;46162;57.568;25.814;2023-02-17T05:44:50;3.80;;;1.30;;
59649;SDS011;46162;57.568;25.814;2023-02-17T05:47:18;6.65;;;1.75;;
59649;SDS011;46162;57.568;25.814;2023-02-17T05:49:47;4.30;;;1.42;;
59649;SDS011;46162;57.568;25.814;2023-02-17T05:52:16;5.55;;;1.40;;
59649;SDS011;46162;57.568;25.814;2023-02-17T05:54:45;4.95;;;1.42;;
59649;SDS011;46162;57.568;25.814;2023-02-17T05:57:18;6.05;;;1.13;;
59649;SDS011;46162;57.568;25.814;2023-02-17T05:59:50;5.57;;;1.70;;
59649;SDS011;46162;57.568;25.814;2023-02-17T06:02:19;4.25;;;1.30;;
59649;SDS011;46162;57.568;25.814;2023-02-17T06:04:51;6.20;;;1.80;;
59649;SDS011;46162;57.568;25.814;2023-02-17T06:07:20;9.20;;;2.00;;
59649;SDS011;46162;57.568;25.814;2023-02-17T06:09:49;7.65;;;2.13;;
59649;SDS011;46162;57.568;25.814;2023-02-17T06:12:19;6.60;;;1.63;;
59649;SDS011;46162;57.568;25.814;2023-02-17T06:14:48;4.45;;;1.65;;
59649;SDS011;46162;57.568;25.814;2023-02-17T06:17:17;5.15;;;1.95;;
59649;SDS011;46162;57.568;25.814;2023-02-17T06:19:47;7.05;;;1.90;;
59649;SDS011;46162;57.568;25.814;2023-02-17T06:22:15;6.35;;;2.10;;
59649;SDS011;46162;57.568;25.814;2023-02-17T06:24:44;7.43;;;2.08;;
59649;SDS011;46162;57.568;25.814;2023-02-17T06:27:12;7.20;;;2.00;;
59649;SDS011;46162;57.568;25.814;2023-02-17T06:29:42;5.85;;;1.95;;
59649;SDS011;46162;57.568;25.814;2023-02-17T06:32:11;8.63;;;2.47;;
59649;SDS011;46162;57.568;25.814;2023-02-17T06:34:40;8.82;;;2.40;;
59649;SDS011;46162;57.568;25.814;2023-02-17T06:37:09;10.45;;;2.53;;
59649;SDS011;46162;57.568;25.814;2023-02-17T06:39:38;8.43;;;2.42;;
59649;SDS011;46162;57.568;25.814;2023-02-17T06:42:06;6.35;;;1.92;;
59649;SDS011;46162;57.568;25.814;2023-02-17T06:44:38;7.45;;;2.28;;
59649;SDS011;46162;57.568;25.814;2023-02-17T06:47:08;9.93;;;2.58;;
59649;SDS011;46162;57.568;25.814;2023-02-17T06:49:37;7.70;;;2.22;;
59649;SDS011;46162;57.568;25.814;2023-02-17T06:52:06;7.30;;;2.40;;
59649;SDS011;46162;57.568;25.814;2023-02-17T06:54:35;7.32;;;2.42;;
59649;SDS011;46162;57.568;25.814;2023-02-17T06:57:04;7.20;;;2.25;;
59649;SDS011;46162;57.568;25.814;2023-02-17T06:59:33;6.28;;;1.73;;
59649;SDS011;46162;57.568;25.814;2023-02-17T07:02:02;8.88;;;2.35;;
59649;SDS011;46162;57.568;25.814;2023-02-17T07:04:35;7.25;;;2.50;;
59649;SDS011;46162;57.568;25.814;2023-02-17T07:07:04;8.20;;;2.25;;
59649;SDS011;46162;57.568;25.814;2023-02-17T07:09:33;7.18;;;2.30;;
59649;SDS011;46162;57.568;25.814;2023-02-17T07:12:02;6.55;;;1.77;;
59649;SDS011;46162;57.568;25.814;2023-02-17T07:14:31;8.75;;;2.22;;
59649;SDS011;46162;57.568;25.814;2023-02-17T07:17:01;8.23;;;1.80;;
59649;SDS011;46162;57.568;25.814;2023-02-17T07:19:35;9.75;;;2.03;;
59649;SDS011;46162;57.568;25.814;2023-02-17T07:22:03;10.43;;;1.83;;
59649;SDS011;46162;57.568;25.814;2023-02-17T07:24:32;8.30;;;2.25;;
59649;SDS011;46162;57.568;25.814;2023-02-17T07:27:03;6.63;;;1.48;;
59649;SDS011;46162;57.568;25.814;2023-02-17T07:29:36;7.32;;;1.52;;
59649;SDS011;46162;57.568;25.814;2023-02-17T07:32:11;9.10;;;1.65;;
59649;SDS011;46162;57.568;25.814;2023-02-17T07:34:50;8.85;;;1.85;;
59649;SDS011;46162;57.568;25.814;2023-02-17T07:38:02;7.43;;;2.17;;
59649;SDS011;46162;57.568;25.814;2023-02-17T07:40:31;8.68;;;2.03;;
59649;SDS011;46162;57.568;25.814;2023-02-17T07:43:00;8.52;;;2.22;;
59649;SDS011;46162;57.568;25.814;2023-02-17T07:45:29;9.07;;;2.05;;
59649;SDS011;46162;57.568;25.814;2023-02-17T07:48:02;10.98;;;3.13;;
59649;SDS011;46162;57.568;25.814;2023-02-17T07:50:33;13.65;;;3.22;;
59649;SDS011;46162;57.568;25.814;2023-02-17T07:53:02;7.50;;;2.55;;
59649;SDS011;46162;57.568;25.814;2023-02-17T07:55:31;9.50;;;2.30;;
59649;SDS011;46162;57.568;25.814;2023-02-17T07:58:02;8.18;;;2.28;;
59649;SDS011;46162;57.568;25.814;2023-02-17T08:00:31;8.98;;;2.22;;
59649;SDS011;46162;57.568;25.814;2023-02-17T08:03:00;10.23;;;2.42;;
59649;SDS011;46162;57.568;25.814;2023-02-17T08:05:29;8.48;;;2.75;;
59649;SDS011;46162;57.568;25.814;2023-02-17T08:08:00;9.30;;;2.63;;
59649;SDS011;46162;57.568;25.814;2023-02-17T08:10:47;15.10;;;3.13;;
59649;SDS011;46162;57.568;25.814;2023-02-17T08:13:33;11.98;;;2.70;;
59649;SDS011;46162;57.568;25.814;2023-02-17T08:16:05;13.30;;;3.85;;
59649;SDS011;46162;57.568;25.814;2023-02-17T08:18:40;14.68;;;3.78;;
59649;SDS011;46162;57.568;25.814;2023-02-17T08:21:09;11.60;;;3.50;;
59649;SDS011;46162;57.568;25.814;2023-02-17T08:23:42;12.10;;;2.70;;
59649;SDS011;46162;57.568;25.814;2023-02-17T08:26:11;11.27;;;2.70;;
59649;SDS011;46162;57.568;25.814;2023-02-17T08:28:42;17.20;;;4.00;;
59649;SDS011;46162;57.568;25.814;2023-02-17T08:31:20;11.88;;;3.25;;
59649;SDS011;46162;57.568;25.814;2023-02-17T08:33:54;14.48;;;3.45;;
59649;SDS011;46162;57.568;25.814;2023-02-17T08:36:23;17.15;;;3.95;;
59649;SDS011;46162;57.568;25.814;2023-02-17T08:38:53;13.60;;;3.90;;
59649;SDS011;46162;57.568;25.814;2023-02-17T08:41:23;13.73;;;3.83;;
59649;SDS011;46162;57.568;25.814;2023-02-17T08:43:55;16.52;;;3.92;;
59649;SDS011;46162;57.568;25.814;2023-02-17T08:46:24;16.70;;;4.28;;
59649;SDS011;46162;57.568;25.814;2023-02-17T08:48:56;16.95;;;4.30;;
59649;SDS011;46162;57.568;25.814;2023-02-17T08:51:24;16.23;;;3.72;;
59649;SDS011;46162;57.568;25.814;2023-02-17T08:53:55;12.90;;;3.70;;
59649;SDS011;46162;57.568;25.814;2023-02-17T08:56:26;11.65;;;3.33;;
59649;SDS011;46162;57.568;25.814;2023-02-17T08:58:55;15.57;;;4.15;;
59649;SDS011;46162;57.568;25.814;2023-02-17T09:01:24;13.23;;;2.90;;
59649;SDS011;46162;57.568;25.814;2023-02-17T09:03:53;14.25;;;4.07;;
59649;SDS011;46162;57.568;25.814;2023-02-17T09:06:29;12.55;;;3.80;;
59649;SDS011;46162;57.568;25.814;2023-02-17T09:09:01;12.88;;;3.92;;
59649;SDS011;46162;57.568;25.814;2023-02-17T09:11:30;12.98;;;4.15;;
59649;SDS011;46162;57.568;25.814;2023-02-17T09:13:59;17.45;;;4.55;;
59649;SDS011;46162;57.568;25.814;2023-02-17T09:16:28;16.02;;;4.30;;
59649;SDS011;46162;57.568;25.814;2023-02-17T09:18:56;14.80;;;4.30;;
59649;SDS011;46162;57.568;25.814;2023-02-17T09:21:25;17.67;;;4.95;;
59649;SDS011;46162;57.568;25.814;2023-02-17T09:23:53;15.45;;;4.80;;
59649;SDS011;46162;57.568;25.814;2023-02-17T09:26:24;15.98;;;4.68;;
59649;SDS011;46162;57.568;25.814;2023-02-17T09:28:52;12.98;;;4.80;;
59649;SDS011;46162;57.568;25.814;2023-02-17T09:31:22;16.83;;;4.72;;
59649;SDS011;46162;57.568;25.814;2023-02-17T09:36:22;14.85;;;4.72;;
59649;SDS011;46162;57.568;25.814;2023-02-17T09:38:52;15.18;;;4.45;;
59649;SDS011;46162;57.568;25.814;2023-02-17T09:41:24;17.08;;;5.22;;
59649;SDS011;46162;57.568;25.814;2023-02-17T09:43:57;13.48;;;4.60;;
59649;SDS011;46162;57.568;25.814;2023-02-17T09:46:27;15.95;;;5.03;;
59649;SDS011;46162;57.568;25.814;2023-02-17T09:48:59;14.10;;;4.57;;
59649;SDS011;46162;57.568;25.814;2023-02-17T09:51:32;14.45;;;5.20;;
59649;SDS011;46162;57.568;25.814;2023-02-17T09:54:04;16.05;;;5.45;;
59649;SDS011;46162;57.568;25.814;2023-02-17T09:56:40;15.70;;;4.75;;
59649;SDS011;46162;57.568;25.814;2023-02-17T09:59:14;13.98;;;5.82;;
59649;SDS011;46162;57.568;25.814;2023-02-17T10:01:47;13.07;;;4.93;;
59649;SDS011;46162;57.568;25.814;2023-02-17T10:04:19;14.32;;;5.25;;
59649;SDS011;46162;57.568;25.814;2023-02-17T10:06:53;15.70;;;5.50;;
59649;SDS011;46162;57.568;25.814;2023-02-17T10:09:29;22.27;;;8.93;;
59649;SDS011;46162;57.568;25.814;2023-02-17T10:12:03;19.45;;;7.68;;
59649;SDS011;46162;57.568;25.814;2023-02-17T10:14:36;24.88;;;8.50;;
59649;SDS011;46162;57.568;25.814;2023-02-17T10:17:09;11.30;;;4.85;;
59649;SDS011;46162;57.568;25.814;2023-02-17T10:19:46;22.42;;;9.07;;
59649;SDS011;46162;57.568;25.814;2023-02-17T10:22:20;14.18;;;5.30;;
59649;SDS011;46162;57.568;25.814;2023-02-17T10:24:50;11.98;;;4.80;;
59649;SDS011;46162;57.568;25.814;2023-02-17T10:27:29;9.95;;;4.50;;
59649;SDS011;46162;57.568;25.814;2023-02-17T10:30:25;9.95;;;4.15;;
59649;SDS011;46162;57.568;25.814;2023-02-17T10:33:00;11.45;;;4.47;;
59649;SDS011;46162;57.568;25.814;2023-02-17T10:35:45;9.55;;;3.90;;
59649;SDS011;46162;57.568;25.814;2023-02-17T10:38:18;10.68;;;4.40;;
59649;SDS011;46162;57.568;25.814;2023-02-17T10:41:00;8.02;;;3.45;;
59649;SDS011;46162;57.568;25.814;2023-02-17T10:43:34;9.10;;;4.03;;
59649;SDS011;46162;57.568;25.814;2023-02-17T10:46:04;8.67;;;3.70;;
59649;SDS011;46162;57.568;25.814;2023-02-17T10:48:37;9.02;;;3.95;;
59649;SDS011;46162;57.568;25.814;2023-02-17T10:51:11;8.60;;;3.65;;
59649;SDS011;46162;57.568;25.814;2023-02-17T10:53:43;8.63;;;3.97;;
59649;SDS011;46162;57.568;25.814;2023-02-17T10:56:16;9.02;;;3.72;;
59649;SDS011;46162;57.568;25.814;2023-02-17T10:58:51;8.48;;;3.38;;
59649;SDS011;46162;57.568;25.814;2023-02-17T11:01:23;9.73;;;4.30;;
59649;SDS011;46162;57.568;25.814;2023-02-17T11:03:59;9.10;;;3.97;;
59649;SDS011;46162;57.568;25.814;2023-02-17T11:06:29;9.57;;;3.97;;
59649;SDS011;46162;57.568;25.814;2023-02-17T11:08:59;9.88;;;4.68;;
59649;SDS011;46162;57.568;25.814;2023-02-17T11:11:33;9.35;;;4.30;;
59649;SDS011;46162;57.568;25.814;2023-02-17T11:14:11;8.93;;;3.83;;
59649;SDS011;46162;57.568;25.814;2023-02-17T11:16:47;8.30;;;3.75;;
59649;SDS011;46162;57.568;25.814;2023-02-17T11:19:20;8.73;;;3.65;;
59649;SDS011;46162;57.568;25.814;2023-02-17T11:21:51;8.48;;;3.58;;
59649;SDS011;46162;57.568;25.814;2023-02-17T11:24:21;8.63;;;4.18;;
59649;SDS011;46162;57.568;25.814;2023-02-17T11:26:54;8.43;;;3.95;;
59649;SDS011;46162;57.568;25.814;2023-02-17T11:29:25;9.43;;;4.40;;
59649;SDS011;46162;57.568;25.814;2023-02-17T11:31:56;7.90;;;4.03;;
59649;SDS011;46162;57.568;25.814;2023-02-17T11:34:27;8.73;;;4.53;;
59649;SDS011;46162;57.568;25.814;2023-02-17T11:36:59;7.57;;;3.85;;
59649;SDS011;46162;57.568;25.814;2023-02-17T11:39:35;7.40;;;3.55;;
59649;SDS011;46162;57.568;25.814;2023-02-17T11:42:13;8.55;;;4.00;;
59649;SDS011;46162;57.568;25.814;2023-02-17T11:44:44;7.68;;;3.92;;
59649;SDS011;46162;57.568;25.814;2023-02-17T11:47:15;8.95;;;3.85;;
59649;SDS011;46162;57.568;25.814;2023-02-17T11:49:53;7.10;;;3.40;;
59649;SDS011;46162;57.568;25.814;2023-02-17T11:52:37;6.60;;;3.47;;
59649;SDS011;46162;57.568;25.814;2023-02-17T11:55:18;7.97;;;3.92;;
59649;SDS011;46162;57.568;25.814;2023-02-17T11:57:54;6.97;;;3.38;;
59649;SDS011;46162;57.568;25.814;2023-02-17T12:00:37;7.13;;;3.50;;
59649;SDS011;46162;57.568;25.814;2023-02-17T12:03:29;6.75;;;2.78;;
59649;SDS011;46162;57.568;25.814;2023-02-17T12:06:12;6.10;;;2.72;;
59649;SDS011;46162;57.568;25.814;2023-02-17T12:08:47;5.28;;;2.63;;
59649;SDS011;46162;57.568;25.814;2023-02-17T12:11:27;6.90;;;2.22;;
59649;SDS011;46162;57.568;25.814;2023-02-17T12:14:16;6.30;;;2.58;;
59649;SDS011;46162;57.568;25.814;2023-02-17T12:16:54;4.43;;;2.08;;
59649;SDS011;46162;57.568;25.814;2023-02-17T12:19:39;5.20;;;1.90;;
59649;SDS011;46162;57.568;25.814;2023-02-17T12:22:21;6.07;;;2.35;;
59649;SDS011;46162;57.568;25.814;2023-02-17T12:25:00;6.45;;;2.22;;
59649;SDS011;46162;57.568;25.814;2023-02-17T12:27:42;4.45;;;1.77;;
59649;SDS011;46162;57.568;25.814;2023-02-17T12:30:22;3.78;;;1.48;;
59649;SDS011;46162;57.568;25.814;2023-02-17T12:33:06;4.75;;;2.03;;
59649;SDS011;46162;57.568;25.814;2023-02-17T12:35:52;4.45;;;1.55;;
59649;SDS011;46162;57.568;25.814;2023-02-17T12:38:23;3.63;;;1.38;;
59649;SDS011;46162;57.568;25.814;2023-02-17T12:40:54;4.75;;;1.70;;
59649;SDS011;46162;57.568;25.814;2023-02-17T12:43:33;3.95;;;1.40;;
59649;SDS011;46162;57.568;25.814;2023-02-17T12:46:06;3.20;;;1.13;;
59649;SDS011;46162;57.568;25.814;2023-02-17T12:48:41;3.50;;;1.30;;
59649;SDS011;46162;57.568;25.814;2023-02-17T12:51:16;3.80;;;1.42;;
59649;SDS011;46162;57.568;25.814;2023-02-17T12:53:50;3.50;;;0.95;;
59649;SDS011;46162;57.568;25.814;2023-02-17T12:59:17;5.97;;;1.40;;
59649;SDS011;46162;57.568;25.814;2023-02-17T13:01:49;3.42;;;1.05;;
59649;SDS011;46162;57.568;25.814;2023-02-17T13:04:23;3.67;;;1.70;;
59649;SDS011;46162;57.568;25.814;2023-02-17T13:09:28;3.83;;;1.30;;
59649;SDS011;46162;57.568;25.814;2023-02-17T13:15:23;4.32;;;1.60;;
59649;SDS011;46162;57.568;25.814;2023-02-17T13:17:57;4.97;;;1.58;;
59649;SDS011;46162;57.568;25.814;2023-02-17T13:23:26;4.13;;;1.83;;
59649;SDS011;46162;57.568;25.814;2023-02-17T13:26:15;4.72;;;1.67;;
59649;SDS011;46162;57.568;25.814;2023-02-17T13:28:53;5.13;;;2.00;;
59649;SDS011;46162;57.568;25.814;2023-02-17T13:31:43;3.97;;;1.52;;
59649;SDS011;46162;57.568;25.814;2023-02-17T13:34:28;4.90;;;2.08;;
59649;SDS011;46162;57.568;25.814;2023-02-17T13:37:01;6.03;;;2.60;;
59649;SDS011;46162;57.568;25.814;2023-02-17T13:39:43;5.35;;;2.13;;
59649;SDS011;46162;57.568;25.814;2023-02-17T13:45:11;5.72;;;2.40;;
59649;SDS011;46162;57.568;25.814;2023-02-17T13:47:45;4.78;;;2.22;;
59649;SDS011;46162;57.568;25.814;2023-02-17T13:50:29;5.88;;;2.92;;
59649;SDS011;46162;57.568;25.814;2023-02-17T13:53:02;4.80;;;2.53;;
59649;SDS011;46162;57.568;25.814;2023-02-17T13:55:48;6.10;;;2.63;;
59649;SDS011;46162;57.568;25.814;2023-02-17T13:58:20;6.20;;;2.90;;
59649;SDS011;46162;57.568;25.814;2023-02-17T14:00:50;4.90;;;2.38;;
59649;SDS011;46162;57.568;25.814;2023-02-17T14:03:20;4.85;;;2.05;;
59649;SDS011;46162;57.568;25.814;2023-02-17T14:05:51;4.57;;;2.38;;
59649;SDS011;46162;57.568;25.814;2023-02-17T14:08:31;5.13;;;2.60;;
59649;SDS011;46162;57.568;25.814;2023-02-17T14:11:04;5.88;;;3.15;;
59649;SDS011;46162;57.568;25.814;2023-02-17T14:13:37;5.82;;;3.55;;
59649;SDS011;46162;57.568;25.814;2023-02-17T14:16:19;6.18;;;3.92;;
59649;SDS011;46162;57.568;25.814;2023-02-17T14:19:02;7.70;;;4.82;;
59649;SDS011;46162;57.568;25.814;2023-02-17T14:21:33;6.82;;;4.35;;
59649;SDS011;46162;57.568;25.814;2023-02-17T14:24:04;6.88;;;4.32;;
59649;SDS011;46162;57.568;25.814;2023-02-17T14:26:38;7.10;;;4.50;;
59649;SDS011;46162;57.568;25.814;2023-02-17T14:29:10;7.38;;;3.92;;
59649;SDS011;46162;57.568;25.814;2023-02-17T14:31:41;5.65;;;3.33;;
59649;SDS011;46162;57.568;25.814;2023-02-17T14:34:12;6.32;;;3.20;;
59649;SDS011;46162;57.568;25.814;2023-02-17T14:36:54;6.15;;;2.65;;
59649;SDS011;46162;57.568;25.814;2023-02-17T14:39:35;7.23;;;2.63;;
59649;SDS011;46162;57.568;25.814;2023-02-17T14:42:04;4.63;;;1.95;;
59649;SDS011;46162;57.568;25.814;2023-02-17T14:44:33;4.15;;;2.28;;
59649;SDS011;46162;57.568;25.814;2023-02-17T14:47:01;5.18;;;2.10;;
59649;SDS011;46162;57.568;25.814;2023-02-17T14:49:30;7.75;;;2.50;;
59649;SDS011;46162;57.568;25.814;2023-02-17T14:52:16;4.68;;;2.60;;
59649;SDS011;46162;57.568;25.814;2023-02-17T14:54:48;4.38;;;2.13;;
59649;SDS011;46162;57.568;25.814;2023-02-17T14:57:17;4.80;;;2.17;;
59649;SDS011;46162;57.568;25.814;2023-02-17T14:59:50;5.82;;;2.33;;
59649;SDS011;46162;57.568;25.814;2023-02-17T15:02:23;4.93;;;2.20;;
59649;SDS011;46162;57.568;25.814;2023-02-17T15:04:51;5.57;;;2.15;;
59649;SDS011;46162;57.568;25.814;2023-02-17T15:07:20;3.60;;;1.70;;
59649;SDS011;46162;57.568;25.814;2023-02-17T15:09:51;4.00;;;1.63;;
59649;SDS011;46162;57.568;25.814;2023-02-17T15:12:20;3.83;;;1.75;;
59649;SDS011;46162;57.568;25.814;2023-02-17T15:14:53;4.18;;;1.75;;
59649;SDS011;46162;57.568;25.814;2023-02-17T15:17:21;4.97;;;3.45;;
59649;SDS011;46162;57.568;25.814;2023-02-17T15:19:50;64.78;;;14.80;;
59649;SDS011;46162;57.568;25.814;2023-02-17T15:22:19;4.65;;;2.13;;
59649;SDS011;46162;57.568;25.814;2023-02-17T15:24:47;73.68;;;8.18;;
59649;SDS011;46162;57.568;25.814;2023-02-17T15:27:17;7.25;;;3.10;;
59649;SDS011;46162;57.568;25.814;2023-02-17T15:29:46;323.58;;;29.48;;